Time;durP1;ratioP1;P1;durP2;ratioP2;P2;SDS_P1;SDS_P2;PMS_P1;PMS_P2;Temp;Humidity;BMP_temperature;BMP_pressure;BME280_temperature;BME280_humidity;BME280_pressure;Samples;Min_cycle;Max_cycle;Signal;HPM_P1;HPM_P2
2021/01/22 00:00:29;;;;;;;308.47;123.20;;;;;;;0.32;100.00;96166.22;5111436;28;20288;-66
2021/01/22 00:02:56;;;;;;;284.20;118.33;;;;;;;0.24;99.74;96169.06;5111464;28;20291;-66
2021/01/22 00:05:23;;;;;;;275.07;113.67;;;;;;;0.07;98.96;96162.91;5111308;28;20204;-65
2021/01/22 00:07:50;;;;;;;281.57;119.70;;;;;;;-0.27;98.12;96162.41;5111507;28;20192;-65
2021/01/22 00:10:17;;;;;;;292.27;123.23;;;;;;;-0.30;98.97;96152.59;5111204;28;20283;-65
2021/01/22 00:12:43;;;;;;;311.53;128.27;;;;;;;-0.47;99.72;96146.47;5111389;28;20340;-65
2021/01/22 00:15:11;;;;;;;373.00;148.47;;;;;;;-0.41;100.00;96150.75;5110901;28;20764;-64
2021/01/22 00:17:40;;;;;;;374.40;149.00;;;;;;;-0.46;100.00;96148.03;5111742;28;20222;-65
2021/01/22 00:20:08;;;;;;;326.33;136.87;;;;;;;-0.48;100.00;96150.00;5111275;28;20282;-66
2021/01/22 00:22:35;;;;;;;338.27;138.20;;;;;;;-0.49;100.00;96161.19;5110982;28;20282;-65
2021/01/22 00:25:03;;;;;;;356.53;145.53;;;;;;;-0.49;100.00;96148.44;5111133;28;20199;-66
2021/01/22 00:27:30;;;;;;;358.70;146.60;;;;;;;-0.40;100.00;96161.75;5110989;28;20194;-66
2021/01/22 00:29:57;;;;;;;361.50;148.27;;;;;;;-0.41;100.00;96150.75;5111463;28;20206;-65
2021/01/22 00:32:24;;;;;;;335.40;139.10;;;;;;;-0.40;100.00;96149.75;5110773;28;20272;-66
2021/01/22 00:34:52;;;;;;;336.93;140.57;;;;;;;-0.42;100.00;96144.06;5110892;28;20284;-65
2021/01/22 00:37:19;;;;;;;338.63;140.50;;;;;;;-0.41;100.00;96140.53;5110712;28;20195;-65
2021/01/22 00:39:46;;;;;;;328.73;140.20;;;;;;;-0.43;100.00;96140.72;5110827;28;20233;-66
2021/01/22 00:42:13;;;;;;;321.00;137.63;;;;;;;-0.44;100.00;96146.03;5110588;28;20273;-66
2021/01/22 00:44:41;;;;;;;336.43;139.70;;;;;;;-0.46;100.00;96153.13;5110636;28;20192;-66
2021/01/22 00:47:07;;;;;;;334.40;137.33;;;;;;;-0.51;100.00;96137.66;5110656;28;20281;-65
2021/01/22 00:49:34;;;;;;;316.97;133.07;;;;;;;-0.73;100.00;96141.53;5110800;28;20197;-65
2021/01/22 00:52:02;;;;;;;327.50;133.50;;;;;;;-0.84;100.00;96149.84;5110843;28;20570;-65
2021/01/22 00:54:29;;;;;;;330.90;137.03;;;;;;;-0.90;100.00;96146.38;5110595;28;20233;-65
2021/01/22 00:56:56;;;;;;;324.00;136.73;;;;;;;-0.90;100.00;96136.91;5110657;28;20239;-66
2021/01/22 00:59:23;;;;;;;341.10;137.87;;;;;;;-0.89;100.00;96135.16;5110673;28;20191;-65
2021/01/22 01:01:50;;;;;;;324.60;138.93;;;;;;;-0.93;100.00;96127.13;5110498;28;20277;-65
2021/01/22 01:04:17;;;;;;;329.77;138.90;;;;;;;-0.95;100.00;96126.53;5110340;28;20793;-66
2021/01/22 01:06:44;;;;;;;330.03;140.50;;;;;;;-0.91;100.00;96124.38;5110424;28;20198;-66
2021/01/22 01:09:11;;;;;;;316.30;135.07;;;;;;;-0.95;100.00;96121.44;5110262;28;20282;-65
2021/01/22 01:11:38;;;;;;;320.40;136.40;;;;;;;-0.79;100.00;96130.38;5110263;28;20332;-66
2021/01/22 01:14:05;;;;;;;307.33;131.10;;;;;;;-0.91;100.00;96129.50;5110143;28;20262;-66
2021/01/22 01:16:32;;;;;;;315.83;130.60;;;;;;;-0.91;100.00;96119.28;5110203;28;20310;-66
2021/01/22 01:18:59;;;;;;;312.03;131.47;;;;;;;-0.97;100.00;96110.69;5110204;28;20286;-65
2021/01/22 01:21:26;;;;;;;302.30;127.53;;;;;;;-1.04;100.00;96109.94;5110089;28;20305;-65
2021/01/22 01:23:53;;;;;;;295.57;126.73;;;;;;;-1.09;100.00;96107.22;5110157;28;20327;-65
2021/01/22 01:26:21;;;;;;;301.63;124.90;;;;;;;-1.13;100.00;96112.94;5110303;28;20195;-65
2021/01/22 01:28:49;;;;;;;287.17;125.33;;;;;;;-1.09;100.00;96114.88;5110777;28;20223;-65
2021/01/22 01:31:15;;;;;;;276.47;118.53;;;;;;;-1.06;100.00;96104.28;5110175;28;20198;-65
2021/01/22 01:33:43;;;;;;;280.70;122.20;;;;;;;-1.02;100.00;96102.88;5110104;28;20305;-65
2021/01/22 01:36:10;;;;;;;285.27;123.13;;;;;;;-1.05;100.00;96099.94;5110100;28;20269;-65
2021/01/22 01:38:37;;;;;;;279.57;119.87;;;;;;;-1.02;100.00;96102.09;5110418;28;20206;-66
2021/01/22 01:41:07;;;;;;;287.47;119.53;;;;;;;-1.04;100.00;96096.41;5110253;28;20219;-65
2021/01/22 01:43:35;;;;;;;269.20;119.27;;;;;;;-1.17;100.00;96097.25;5110352;28;20202;-64
2021/01/22 01:46:02;;;;;;;277.20;118.50;;;;;;;-1.22;100.00;96102.19;5110017;28;20236;-65
2021/01/22 01:48:29;;;;;;;277.67;117.97;;;;;;;-1.28;100.00;96110.66;5109984;28;20256;-65
2021/01/22 01:50:56;;;;;;;276.53;120.90;;;;;;;-1.42;100.00;96109.16;5113098;28;20733;-65
2021/01/22 01:53:24;;;;;;;292.80;121.40;;;;;;;-1.59;99.76;96102.94;5114026;28;20340;-63
2021/01/22 01:55:51;;;;;;;280.90;116.03;;;;;;;-1.63;100.00;96101.78;5113840;28;20230;-66
2021/01/22 01:58:19;;;;;;;280.13;122.73;;;;;;;-1.52;100.00;96088.41;5113778;28;20244;-65
2021/01/22 02:00:48;;;;;;;289.53;121.17;;;;;;;-1.41;100.00;96085.22;5113736;28;20282;-65
2021/01/22 02:03:17;;;;;;;266.20;119.93;;;;;;;-1.26;100.00;96085.75;5113771;28;20281;-64
2021/01/22 02:05:45;;;;;;;258.13;117.33;;;;;;;-1.29;100.00;96091.25;5113785;28;20278;-66
2021/01/22 02:08:13;;;;;;;284.10;123.47;;;;;;;-1.32;100.00;96097.53;5113625;28;20194;-65
2021/01/22 02:10:39;;;;;;;283.23;126.10;;;;;;;-1.25;100.00;96094.97;5113526;28;20201;-65
2021/01/22 02:13:07;;;;;;;290.10;124.03;;;;;;;-1.27;100.00;96096.13;5113644;28;20627;-65
2021/01/22 02:15:35;;;;;;;273.83;125.07;;;;;;;-1.24;100.00;96099.06;5113299;28;20321;-66
2021/01/22 02:18:06;;;;;;;278.93;122.70;;;;;;;-1.28;100.00;96087.72;5113468;28;20374;-63
2021/01/22 02:20:47;;;;;;;281.67;119.70;;;;;;;-1.26;100.00;96080.66;5113513;28;20209;-66
2021/01/22 02:23:18;;;;;;;285.97;126.87;;;;;;;-1.23;100.00;96080.22;5113334;28;20681;-67
2021/01/22 02:25:45;;;;;;;282.17;122.43;;;;;;;-1.26;100.00;96074.75;5113357;28;20643;-65
2021/01/22 02:28:15;;;;;;;300.97;129.23;;;;;;;-1.37;100.00;96068.53;5113312;28;20270;-65
2021/01/22 02:30:43;;;;;;;267.83;118.10;;;;;;;-1.36;100.00;96080.31;5113206;28;20205;-65
2021/01/22 02:33:12;;;;;;;274.63;120.50;;;;;;;-1.39;100.00;96091.69;5113094;28;20210;-66
2021/01/22 02:35:40;;;;;;;267.10;122.80;;;;;;;-1.38;100.00;96083.06;5113092;28;20256;-66
2021/01/22 02:38:09;;;;;;;274.63;121.43;;;;;;;-1.27;100.00;96085.94;5113076;28;20206;-65
2021/01/22 02:40:37;;;;;;;271.97;122.37;;;;;;;-1.20;100.00;96084.16;5113010;28;20190;-65
2021/01/22 02:43:06;;;;;;;265.37;118.83;;;;;;;-1.35;100.00;96085.22;5112969;28;20564;-66
2021/01/22 02:45:34;;;;;;;270.37;117.27;;;;;;;-1.36;100.00;96082.84;5113219;28;20196;-66
2021/01/22 02:48:01;;;;;;;259.07;119.77;;;;;;;-1.35;100.00;96076.78;5112899;28;20368;-66
2021/01/22 02:50:33;;;;;;;256.83;114.40;;;;;;;-1.41;100.00;96072.50;5112821;28;20290;-64
2021/01/22 02:53:04;;;;;;;259.10;115.77;;;;;;;-1.44;100.00;96070.34;5112811;28;20289;-66
2021/01/22 02:55:32;;;;;;;256.83;114.83;;;;;;;-1.54;100.00;96068.22;5113044;28;20222;-66
2021/01/22 02:58:05;;;;;;;270.63;117.87;;;;;;;-1.45;100.00;96066.25;5112906;28;20264;-66
2021/01/22 03:00:38;;;;;;;261.40;113.00;;;;;;;-1.26;100.00;96065.34;5112679;28;20274;-64
2021/01/22 03:03:10;;;;;;;221.00;97.93;;;;;;;-1.28;100.00;96064.75;5112767;28;20199;-66
2021/01/22 03:05:39;;;;;;;184.50;90.03;;;;;;;-1.20;100.00;96063.75;5112659;28;20202;-66
2021/01/22 03:08:10;;;;;;;217.17;94.37;;;;;;;-1.19;100.00;96071.19;5112857;28;20270;-65
2021/01/22 03:10:39;;;;;;;238.13;103.83;;;;;;;-1.33;100.00;96070.47;5112696;28;20771;-66
2021/01/22 03:13:07;;;;;;;248.07;106.37;;;;;;;-1.44;100.00;96066.03;5112586;28;20278;-65
2021/01/22 03:15:36;;;;;;;154.07;73.10;;;;;;;-1.41;100.00;96069.94;5112079;28;20280;-66
2021/01/22 03:18:14;;;;;;;211.77;93.73;;;;;;;-1.47;100.00;96068.19;5112179;28;20290;-66
2021/01/22 03:20:41;;;;;;;203.40;91.73;;;;;;;-1.61;100.00;96072.59;5112444;28;20199;-65
2021/01/22 03:23:08;;;;;;;195.93;81.53;;;;;;;-1.70;100.00;96067.91;5112287;28;20203;-65
2021/01/22 03:25:35;;;;;;;181.67;78.93;;;;;;;-2.02;100.00;96067.81;5112299;28;20329;-65
2021/01/22 03:28:03;;;;;;;140.60;64.43;;;;;;;-2.04;98.37;96076.66;5112219;28;20224;-65
2021/01/22 03:30:31;;;;;;;152.10;67.70;;;;;;;-2.17;96.85;96080.00;5112093;28;20244;-65
2021/01/22 03:32:59;;;;;;;162.77;73.50;;;;;;;-2.23;97.12;96075.69;5112427;28;20630;-65
2021/01/22 03:35:26;;;;;;;225.97;96.63;;;;;;;-2.25;98.29;96075.13;5111972;28;20787;-65
2021/01/22 03:37:53;;;;;;;218.90;95.93;;;;;;;-2.19;99.25;96074.31;5112217;28;20223;-66
2021/01/22 03:40:20;;;;;;;229.70;103.40;;;;;;;-2.11;100.00;96061.38;5112026;28;20202;-65
2021/01/22 03:42:47;;;;;;;224.10;104.13;;;;;;;-2.06;100.00;96064.13;5111964;28;20229;-66
2021/01/22 03:45:15;;;;;;;227.33;102.67;;;;;;;-1.98;100.00;96066.44;5111952;28;20227;-65
2021/01/22 03:47:42;;;;;;;228.80;99.87;;;;;;;-2.03;100.00;96068.78;5111942;28;20204;-66
2021/01/22 03:50:10;;;;;;;210.17;93.87;;;;;;;-2.08;100.00;96060.19;5112004;28;20228;-64
2021/01/22 03:52:38;;;;;;;207.53;94.27;;;;;;;-2.10;100.00;96068.06;5111539;28;20235;-66
2021/01/22 03:55:06;;;;;;;225.13;100.67;;;;;;;-2.14;100.00;96069.41;5111673;28;20200;-65
2021/01/22 03:57:33;;;;;;;245.23;109.47;;;;;;;-2.16;100.00;96071.38;5111585;28;20695;-65
2021/01/22 04:00:00;;;;;;;233.37;107.50;;;;;;;-2.17;100.00;96072.34;5111460;28;20701;-66
2021/01/22 04:02:27;;;;;;;246.07;109.83;;;;;;;-2.14;100.00;96071.94;5111687;28;20249;-65
2021/01/22 04:04:54;;;;;;;237.97;107.17;;;;;;;-2.07;100.00;96077.81;5111741;28;20194;-65
2021/01/22 04:07:21;;;;;;;240.77;108.90;;;;;;;-2.03;100.00;96071.34;5111361;28;20282;-65
2021/01/22 04:09:48;;;;;;;236.20;109.80;;;;;;;-2.00;100.00;96067.63;5111348;28;20228;-65
2021/01/22 04:12:15;;;;;;;251.23;110.80;;;;;;;-2.02;100.00;96059.41;5110679;28;20282;-65
2021/01/22 04:14:42;;;;;;;249.83;109.93;;;;;;;-2.10;100.00;96060.41;5111226;28;20699;-66
2021/01/22 04:17:09;;;;;;;236.17;106.40;;;;;;;-2.06;100.00;96068.41;5111066;28;20236;-66
2021/01/22 04:19:35;;;;;;;242.27;106.83;;;;;;;-2.15;100.00;96072.16;5111284;28;20357;-66
2021/01/22 04:22:02;;;;;;;231.90;108.53;;;;;;;-2.16;100.00;96073.94;5111408;28;20246;-65
2021/01/22 04:24:30;;;;;;;220.03;105.30;;;;;;;-2.23;100.00;96083.34;5111274;28;20204;-66
2021/01/22 04:26:57;;;;;;;237.53;107.83;;;;;;;-2.35;100.00;96082.38;5110995;28;20203;-65
2021/01/22 04:29:24;;;;;;;238.63;106.63;;;;;;;-2.44;100.00;96079.25;5111174;28;20198;-65
2021/01/22 04:31:51;;;;;;;249.33;111.80;;;;;;;-2.39;100.00;96083.75;5111175;28;20283;-66
2021/01/22 04:34:18;;;;;;;235.80;109.43;;;;;;;-2.34;100.00;96094.13;5110823;28;20219;-65
2021/01/22 04:36:44;;;;;;;232.33;106.60;;;;;;;-2.37;100.00;96082.56;5111420;28;20236;-65
2021/01/22 04:39:11;;;;;;;239.27;106.87;;;;;;;-2.38;100.00;96081.00;5110886;28;20284;-65
2021/01/22 04:41:39;;;;;;;242.77;108.80;;;;;;;-2.38;100.00;96080.22;5111090;28;20247;-65
2021/01/22 04:44:06;;;;;;;249.97;118.70;;;;;;;-2.30;100.00;96068.09;5110897;28;20277;-65
2021/01/22 04:46:35;;;;;;;266.37;123.43;;;;;;;-2.13;100.00;96076.06;5110839;28;20704;-65
2021/01/22 04:49:03;;;;;;;275.67;126.93;;;;;;;-2.14;100.00;96071.19;5110726;28;20194;-65
2021/01/22 04:51:31;;;;;;;291.50;131.03;;;;;;;-2.02;100.00;96067.81;5110712;28;20637;-65
2021/01/22 04:54:04;;;;;;;263.13;122.80;;;;;;;-2.02;100.00;96080.56;5110609;28;20769;-65
2021/01/22 04:56:36;;;;;;;244.63;111.50;;;;;;;-1.95;100.00;96073.69;5110688;28;20225;-66
2021/01/22 04:59:08;;;;;;;256.43;110.83;;;;;;;-2.03;100.00;96078.97;5110530;28;20190;-66
2021/01/22 05:01:36;;;;;;;260.47;113.97;;;;;;;-2.12;100.00;96070.00;5110626;28;20210;-65
2021/01/22 05:04:03;;;;;;;257.07;119.10;;;;;;;-2.13;100.00;96070.19;5110523;28;20197;-66
2021/01/22 05:06:30;;;;;;;256.80;118.30;;;;;;;-2.12;100.00;96067.44;5110393;28;20225;-65
2021/01/22 05:08:57;;;;;;;244.83;110.07;;;;;;;-1.96;100.00;96063.69;5110337;28;20626;-66
2021/01/22 05:11:24;;;;;;;229.30;107.43;;;;;;;-2.00;100.00;96063.31;5110371;28;20205;-65
2021/01/22 05:13:52;;;;;;;225.57;102.07;;;;;;;-1.91;100.00;96062.13;5110416;28;20234;-66
2021/01/22 05:16:23;;;;;;;207.47;98.47;;;;;;;-1.95;100.00;96066.06;5110211;28;20230;-66
2021/01/22 05:18:50;;;;;;;208.33;95.63;;;;;;;-1.93;100.00;96058.19;5110319;28;20686;-65
2021/01/22 05:21:19;;;;;;;213.27;96.80;;;;;;;-1.95;100.00;96058.41;5110246;28;20214;-65
2021/01/22 05:23:46;;;;;;;196.53;95.00;;;;;;;-1.97;100.00;96073.09;5110647;28;20237;-66
2021/01/22 05:26:16;;;;;;;230.97;102.53;;;;;;;-2.00;100.00;96063.31;5114264;28;20594;-65
2021/01/22 05:28:45;;;;;;;230.07;105.63;;;;;;;-2.07;100.00;96057.47;5114535;28;20256;-65
2021/01/22 05:31:13;;;;;;;239.63;103.40;;;;;;;-2.19;100.00;96066.69;5114372;28;20195;-65
2021/01/22 05:33:41;;;;;;;246.13;108.07;;;;;;;-2.25;100.00;96063.19;5114219;28;20253;-65
2021/01/22 05:36:27;;;;;;;280.93;126.00;;;;;;;-2.25;100.00;96062.41;5114404;28;20380;-66
2021/01/22 05:38:55;;;;;;;292.37;130.87;;;;;;;-2.16;100.00;96051.03;5114598;28;20194;-66
2021/01/22 05:41:23;;;;;;;275.57;124.87;;;;;;;-2.23;100.00;96043.41;5114186;28;20285;-65
2021/01/22 05:43:50;;;;;;;266.70;121.33;;;;;;;-2.28;100.00;96062.78;5114099;28;20200;-65
2021/01/22 05:46:19;;;;;;;206.23;95.63;;;;;;;-2.15;100.00;96070.41;5114314;28;20695;-66
2021/01/22 05:48:47;;;;;;;183.13;85.27;;;;;;;-2.24;100.00;96062.19;5114290;28;20195;-65
2021/01/22 05:51:15;;;;;;;181.27;86.17;;;;;;;-2.14;100.00;96061.00;5113931;28;20197;-66
2021/01/22 05:53:46;;;;;;;167.80;80.90;;;;;;;-2.14;100.00;96059.22;5114292;28;20271;-66
2021/01/22 05:56:14;;;;;;;179.53;86.17;;;;;;;-2.12;100.00;96051.41;5113809;28;20229;-66
2021/01/22 05:58:42;;;;;;;160.73;79.30;;;;;;;-2.13;100.00;96058.25;5114031;28;20582;-67
2021/01/22 06:01:11;;;;;;;163.67;78.50;;;;;;;-2.17;100.00;96062.19;5113766;28;20660;-67
2021/01/22 06:03:39;;;;;;;206.13;95.47;;;;;;;-2.10;100.00;96065.50;5113727;28;20687;-66
2021/01/22 06:06:07;;;;;;;211.67;98.63;;;;;;;-2.13;100.00;96063.34;5113684;28;20303;-66
2021/01/22 06:08:34;;;;;;;226.90;102.67;;;;;;;-2.01;100.00;96064.31;5113980;28;20212;-66
2021/01/22 06:11:02;;;;;;;225.67;103.47;;;;;;;-1.92;100.00;96059.75;5113546;28;20284;-66
2021/01/22 06:13:30;;;;;;;215.50;99.33;;;;;;;-1.90;100.00;96053.50;5113516;28;20248;-64
2021/01/22 06:15:58;;;;;;;199.27;93.03;;;;;;;-1.84;100.00;96060.31;5113881;28;20233;-66
2021/01/22 06:18:30;;;;;;;191.43;89.43;;;;;;;-1.71;100.00;96051.84;5113821;28;20207;-66
2021/01/22 06:21:14;;;;;;;200.70;96.07;;;;;;;-1.71;100.00;96045.97;5113407;28;20203;-64
2021/01/22 06:23:41;;;;;;;305.37;116.60;;;;;;;-1.68;100.00;96051.44;5113369;28;20206;-66
2021/01/22 06:26:09;;;;;;;340.27;127.43;;;;;;;-1.60;100.00;96033.38;5113647;28;20192;-66
2021/01/22 06:28:37;;;;;;;606.50;222.40;;;;;;;-1.47;100.00;96042.72;5113420;28;20274;-64
2021/01/22 06:31:06;;;;;;;573.03;207.10;;;;;;;-1.40;100.00;96043.47;5113554;28;20198;-66
2021/01/22 06:33:35;;;;;;;254.27;116.37;;;;;;;-1.27;100.00;96033.19;5113176;28;20218;-66
2021/01/22 06:36:04;;;;;;;264.47;123.00;;;;;;;-1.12;100.00;96028.59;5112502;28;20229;-66
2021/01/22 06:38:31;;;;;;;344.77;147.27;;;;;;;-1.03;100.00;96031.66;5113366;28;20278;-67
2021/01/22 06:40:59;;;;;;;340.67;152.20;;;;;;;-0.96;100.00;96034.97;5113780;28;20294;-66
2021/01/22 06:43:26;;;;;;;380.10;177.60;;;;;;;-0.92;100.00;96036.09;5113198;28;20191;-66
2021/01/22 06:46:01;;;;;;;405.57;190.40;;;;;;;-0.76;100.00;96035.59;5113192;28;20301;-66
2021/01/22 06:48:28;;;;;;;410.00;194.13;;;;;;;-0.56;100.00;96031.09;5112862;28;20186;-66
2021/01/22 06:51:15;;;;;;;360.10;175.40;;;;;;;-0.39;100.00;96028.75;5112882;28;20188;-67
2021/01/22 06:54:08;;;;;;;362.83;172.07;;;;;;;-0.26;100.00;96030.44;5112740;28;20187;-67
2021/01/22 06:56:37;;;;;;;346.13;163.73;;;;;;;-0.10;100.00;96025.53;5112681;28;20250;-66
2021/01/22 06:59:38;;;;;;;337.93;158.53;;;;;;;0.05;100.00;96026.97;5112594;28;20196;-66
2021/01/22 07:02:37;;;;;;;289.50;139.43;;;;;;;0.25;100.00;96022.41;5113033;28;20202;-66
2021/01/22 07:05:40;;;;;;;241.17;123.57;;;;;;;0.50;100.00;96040.94;5112447;28;20191;-66
2021/01/22 07:08:06;;;;;;;284.63;131.47;;;;;;;0.42;100.00;96044.59;5112886;28;20194;-65
2021/01/22 07:11:00;;;;;;;225.90;114.90;;;;;;;0.61;100.00;96042.75;5112387;28;20680;-67
2021/01/22 07:13:37;;;;;;;216.33;108.60;;;;;;;0.56;100.00;96042.63;5112473;28;20278;-65
2021/01/22 07:16:23;;;;;;;228.17;108.30;;;;;;;0.82;100.00;96036.38;5072186;28;20227;-66
2021/01/22 07:18:52;;;;;;;214.53;107.07;;;;;;;0.95;100.00;96043.09;5071423;28;20205;-67
2021/01/22 07:21:38;;;;;;;241.70;120.43;;;;;;;0.99;99.77;96031.44;5071684;28;20197;-66
2021/01/22 07:24:12;;;;;;;222.30;113.67;;;;;;;0.97;99.36;96031.63;5072011;28;20219;-66
2021/01/22 07:26:42;;;;;;;231.77;119.87;;;;;;;1.08;100.00;96030.09;5072169;28;20215;-67
2021/01/22 07:29:19;;;;;;;219.30;110.10;;;;;;;1.12;99.32;96028.66;5071566;28;20672;-66
2021/01/22 07:31:50;;;;;;;204.97;107.33;;;;;;;1.07;97.96;96020.88;5071640;28;20277;-67
2021/01/22 07:34:56;;;;;;;306.60;130.60;;;;;;;1.16;97.15;96035.69;5071245;28;20210;-65
2021/01/22 07:37:24;;;;;;;277.20;127.67;;;;;;;1.15;97.75;96028.22;5071414;28;20237;-65
2021/01/22 07:39:53;;;;;;;301.73;134.47;;;;;;;1.19;97.74;96031.91;5071590;28;20205;-67
2021/01/22 07:42:22;;;;;;;309.73;145.17;;;;;;;1.33;97.54;96030.69;5071460;28;20553;-66
2021/01/22 07:44:51;;;;;;;376.30;163.07;;;;;;;1.35;97.56;96033.81;5071149;28;20689;-67
2021/01/22 07:47:26;;;;;;;307.40;148.07;;;;;;;1.38;97.85;96037.72;5070212;28;20244;-67
2021/01/22 07:49:58;;;;;;;208.77;106.13;;;;;;;1.39;97.16;96029.03;5071452;28;20192;-66
2021/01/22 07:52:26;;;;;;;243.77;115.63;;;;;;;1.45;97.96;96026.34;5071218;28;20245;-66
2021/01/22 07:54:53;;;;;;;203.37;109.53;;;;;;;1.52;96.96;96034.72;5070937;28;20199;-67
2021/01/22 07:57:23;;;;;;;199.53;105.23;;;;;;;1.59;98.27;96022.59;5070925;28;20235;-67
2021/01/22 07:59:51;;;;;;;189.63;100.60;;;;;;;1.63;97.78;96022.91;5070924;28;20577;-66
2021/01/22 08:02:19;;;;;;;553.20;321.10;;;;;;;1.72;99.04;96019.00;5070812;28;20689;-66
2021/01/22 08:04:56;;;;;;;256.13;125.60;;;;;;;1.82;98.25;96018.44;5071039;28;20282;-66
2021/01/22 08:07:37;;;;;;;194.07;100.53;;;;;;;1.92;98.55;96010.97;5070899;28;20237;-66
2021/01/22 08:10:07;;;;;;;167.53;88.17;;;;;;;2.04;97.23;96011.72;5071141;28;20226;-66
2021/01/22 08:12:35;;;;;;;166.27;91.47;;;;;;;2.02;98.13;96016.28;5070754;28;20201;-67
2021/01/22 08:15:15;;;;;;;181.50;102.07;;;;;;;2.17;98.00;96017.38;5096634;28;20613;-66
2021/01/22 08:17:45;;;;;;;166.33;94.40;;;;;;;2.25;97.46;96003.41;5111323;28;20624;-66
2021/01/22 08:20:13;;;;;;;177.23;101.80;;;;;;;2.36;95.96;96000.03;5111059;28;20198;-66
2021/01/22 08:22:40;;;;;;;185.30;103.90;;;;;;;2.33;96.93;95989.44;5111363;28;20219;-66
2021/01/22 08:25:07;;;;;;;184.53;100.73;;;;;;;2.25;96.69;96002.63;5111110;28;20234;-65
2021/01/22 08:27:35;;;;;;;165.03;92.57;;;;;;;2.30;97.09;96006.06;5110984;28;20274;-67
2021/01/22 08:30:04;;;;;;;181.73;99.30;;;;;;;2.34;97.25;96014.09;5110996;28;20584;-66
2021/01/22 08:32:32;;;;;;;171.73;92.93;;;;;;;2.41;97.32;96012.16;5110740;28;20722;-66
2021/01/22 08:35:00;;;;;;;126.67;68.43;;;;;;;2.49;96.06;96019.50;5110819;28;20248;-66
2021/01/22 08:37:27;;;;;;;127.37;64.20;;;;;;;2.58;94.67;96013.78;5110885;28;20752;-66
2021/01/22 08:39:59;;;;;;;139.13;72.23;;;;;;;2.57;95.25;96007.09;5111042;28;20244;-66
2021/01/22 08:42:26;;;;;;;140.13;77.57;;;;;;;2.59;94.99;96007.59;5110803;28;20731;-66
2021/01/22 08:44:58;;;;;;;139.57;74.30;;;;;;;2.64;94.44;96001.78;5110832;28;20291;-64
2021/01/22 08:47:27;;;;;;;112.93;66.33;;;;;;;2.66;94.13;95996.44;5110836;28;20284;-66
2021/01/22 08:49:58;;;;;;;108.33;57.70;;;;;;;2.48;94.90;96003.34;5110739;28;20690;-67
2021/01/22 08:52:26;;;;;;;189.10;76.47;;;;;;;2.35;94.64;95998.47;5110951;28;20749;-66
2021/01/22 08:54:54;;;;;;;162.27;75.10;;;;;;;2.47;95.16;95988.16;5110794;28;20225;-67
2021/01/22 08:57:22;;;;;;;137.27;67.47;;;;;;;2.51;95.44;95990.03;5110611;28;20230;-67
2021/01/22 08:59:52;;;;;;;135.93;68.17;;;;;;;2.49;94.92;95979.22;5110495;28;20660;-66
2021/01/22 09:02:38;;;;;;;122.37;62.70;;;;;;;2.67;95.35;95977.47;5110774;28;20210;-66
2021/01/22 09:05:07;;;;;;;149.67;74.53;;;;;;;2.73;95.60;95976.56;5109954;28;20255;-66
2021/01/22 09:07:38;;;;;;;100.13;54.43;;;;;;;2.85;94.58;95990.09;5110492;28;20668;-66
2021/01/22 09:10:26;;;;;;;107.10;56.80;;;;;;;2.93;94.07;95994.84;5110456;28;20206;-66
2021/01/22 09:12:56;;;;;;;95.33;55.40;;;;;;;3.12;93.72;95992.81;5110569;28;20235;-66
2021/01/22 09:15:22;;;;;;;110.23;60.67;;;;;;;3.16;93.00;95989.56;5110008;28;20244;-65
2021/01/22 09:17:54;;;;;;;98.57;52.77;;;;;;;3.09;93.34;95983.78;5110528;28;20191;-65
2021/01/22 09:20:22;;;;;;;114.03;60.83;;;;;;;3.23;92.84;95969.66;5110294;28;20543;-65
2021/01/22 09:22:51;;;;;;;115.73;57.87;;;;;;;3.27;92.02;95960.47;5110486;28;20198;-65
2021/01/22 09:25:20;;;;;;;117.40;61.73;;;;;;;3.35;92.99;95954.91;5110327;28;20278;-65
2021/01/22 09:27:48;;;;;;;172.73;79.13;;;;;;;3.45;91.96;95954.25;5110144;28;20229;-63
2021/01/22 09:30:20;;;;;;;174.10;82.83;;;;;;;3.40;92.63;95954.19;5110233;28;20244;-66
2021/01/22 09:32:49;;;;;;;150.40;73.97;;;;;;;3.58;92.45;95953.16;5110280;28;20242;-66
2021/01/22 09:35:20;;;;;;;122.40;63.93;;;;;;;3.71;91.96;95947.66;5110151;28;20283;-66
2021/01/22 09:37:47;;;;;;;101.97;54.27;;;;;;;3.75;92.23;95946.16;5110222;28;20309;-66
2021/01/22 09:40:17;;;;;;;77.87;43.17;;;;;;;3.83;91.87;95925.22;5110144;28;20187;-66
2021/01/22 09:42:44;;;;;;;82.40;45.70;;;;;;;4.01;91.22;95917.19;5110042;28;20219;-66
2021/01/22 09:45:12;;;;;;;411.37;153.77;;;;;;;4.12;91.10;95894.91;5110065;28;20223;-67
2021/01/22 09:47:39;;;;;;;330.80;128.77;;;;;;;4.22;90.37;95911.22;5109945;28;20290;-65
2021/01/22 09:50:09;;;;;;;234.03;102.10;;;;;;;4.35;90.27;95910.06;5110327;28;20258;-65
2021/01/22 09:52:38;;;;;;;232.83;94.07;;;;;;;4.17;89.34;95912.97;5109965;28;20325;-65
2021/01/22 09:55:07;;;;;;;145.27;70.87;;;;;;;4.25;89.70;95908.16;5110191;28;20681;-66
2021/01/22 09:57:34;;;;;;;133.70;66.47;;;;;;;4.27;89.34;95901.00;5109825;28;20276;-65
2021/01/22 10:00:01;;;;;;;119.87;63.20;;;;;;;4.28;89.38;95891.50;5110073;28;20202;-66
2021/01/22 10:02:28;;;;;;;114.67;60.10;;;;;;;4.28;89.22;95896.63;5110123;28;20195;-65
2021/01/22 10:04:54;;;;;;;112.83;58.80;;;;;;;4.28;89.34;95902.53;5110158;28;20661;-65
2021/01/22 10:07:21;;;;;;;92.13;53.10;;;;;;;4.33;90.34;95912.88;5109911;28;20206;-66
2021/01/22 10:09:49;;;;;;;70.50;42.93;;;;;;;4.19;90.33;95919.41;5109941;28;20218;-65
2021/01/22 10:12:16;;;;;;;75.20;44.07;;;;;;;4.36;91.58;95914.19;5113213;28;20198;-65
2021/01/22 10:14:43;;;;;;;74.93;44.20;;;;;;;4.29;91.32;95909.22;5113585;28;20608;-65
2021/01/22 10:17:10;;;;;;;76.93;45.13;;;;;;;4.42;91.32;95902.16;5113920;28;20230;-65
2021/01/22 10:19:37;;;;;;;76.23;44.43;;;;;;;4.49;90.63;95910.44;5113723;28;20199;-65
2021/01/22 10:22:04;;;;;;;70.37;40.27;;;;;;;4.61;89.92;95898.19;5113703;28;20613;-65
2021/01/22 10:24:31;;;;;;;75.57;43.13;;;;;;;4.71;88.95;95890.56;5113377;28;20197;-65
2021/01/22 10:26:59;;;;;;;248.17;90.33;;;;;;;4.90;88.98;95884.00;5113452;28;20289;-66
2021/01/22 10:29:26;;;;;;;131.80;59.07;;;;;;;5.03;88.46;95877.66;5113373;28;20282;-65
2021/01/22 10:31:52;;;;;;;63.60;38.57;;;;;;;5.15;88.18;95880.81;5113465;28;20275;-65
2021/01/22 10:34:19;;;;;;;73.10;41.67;;;;;;;5.50;86.38;95877.63;5113295;28;20302;-66
2021/01/22 10:36:46;;;;;;;62.33;36.93;;;;;;;5.64;85.50;95860.66;5113347;28;20227;-65
2021/01/22 10:39:13;;;;;;;131.13;51.33;;;;;;;5.89;83.86;95865.94;5113327;28;20656;-63
2021/01/22 10:41:40;;;;;;;71.67;38.60;;;;;;;6.22;84.42;95857.00;5113145;28;20630;-65
2021/01/22 10:44:08;;;;;;;57.23;34.07;;;;;;;6.48;81.92;95855.97;5113287;28;20297;-64
2021/01/22 10:46:35;;;;;;;64.37;37.63;;;;;;;6.65;82.12;95858.28;5113284;28;20212;-65
2021/01/22 10:49:02;;;;;;;56.00;32.63;;;;;;;6.63;80.88;95854.41;5112980;28;20226;-65
2021/01/22 10:51:28;;;;;;;220.37;78.17;;;;;;;6.85;80.21;95835.03;5113040;28;20348;-65
2021/01/22 10:53:55;;;;;;;93.80;52.40;;;;;;;6.84;79.59;95830.13;5112953;28;20198;-65
2021/01/22 10:56:22;;;;;;;213.03;69.33;;;;;;;7.02;78.94;95824.44;5112772;28;20364;-64
2021/01/22 10:58:49;;;;;;;123.47;58.40;;;;;;;7.05;78.05;95816.13;5112645;28;20765;-65
2021/01/22 11:01:17;;;;;;;82.70;40.10;;;;;;;7.13;78.05;95814.81;5112657;28;20199;-65
2021/01/22 11:03:43;;;;;;;112.30;50.77;;;;;;;7.25;78.30;95804.97;5112798;28;20242;-65
2021/01/22 11:06:10;;;;;;;253.87;77.87;;;;;;;7.40;78.21;95801.53;5112969;28;20206;-65
2021/01/22 11:08:37;;;;;;;103.67;44.50;;;;;;;7.45;77.66;95786.78;5112730;28;20248;-64
2021/01/22 11:11:04;;;;;;;115.63;46.97;;;;;;;7.59;77.47;95777.41;5112439;28;20195;-65
2021/01/22 11:13:32;;;;;;;134.57;50.10;;;;;;;7.68;77.88;95775.81;5112154;28;20240;-65